Time;durP1;ratioP1;P1;durP2;ratioP2;P2;SDS_P1;SDS_P2;PMS_P1;PMS_P2;Temp;Humidity;BMP_temperature;BMP_pressure;BME280_temperature;BME280_humidity;BME280_pressure;Samples;Min_cycle;Max_cycle;Signal;HPM_P1;HPM_P2
2022/03/29 00:00:40;;;;;;;41.90;33.75;;;8.50;99.90;;;;;;5043006;28;20029;-70
2022/03/29 00:03:07;;;;;;;59.65;38.55;;;8.60;99.90;;;;;;5046049;28;20025;-71
2022/03/29 00:05:34;;;;;;;46.72;32.47;;;8.50;99.90;;;;;;5048584;28;20043;-70
2022/03/29 00:08:00;;;;;;;49.38;30.52;;;8.50;99.90;;;;;;5050739;28;20020;-69
2022/03/29 00:10:26;;;;;;;42.03;31.08;;;8.50;99.90;;;;;;5041274;28;20021;-70
2022/03/29 00:12:55;;;;;;;36.83;29.40;;;8.50;99.90;;;;;;5044385;28;20037;-70
2022/03/29 00:15:22;;;;;;;37.13;29.55;;;8.40;99.90;;;;;;5048459;28;20048;-71
2022/03/29 00:17:49;;;;;;;37.45;29.55;;;8.30;99.90;;;;;;5041102;28;20541;-70
2022/03/29 00:20:18;;;;;;;34.70;28.98;;;8.20;99.90;;;;;;5044258;28;20115;-69
2022/03/29 00:22:47;;;;;;;40.33;30.98;;;8.20;99.90;;;;;;5049610;28;20253;-69
2022/03/29 00:25:13;;;;;;;40.40;30.80;;;8.30;99.90;;;;;;5050084;28;20390;-70
2022/03/29 00:27:39;;;;;;;36.40;30.90;;;8.30;99.90;;;;;;5048111;28;20097;-70
2022/03/29 00:30:17;;;;;;;36.08;29.40;;;8.30;99.90;;;;;;5044757;28;20345;-70
2022/03/29 00:32:44;;;;;;;36.97;30.25;;;8.20;99.90;;;;;;5049277;28;20486;-70
2022/03/29 00:35:10;;;;;;;35.17;30.90;;;8.10;99.90;;;;;;5050139;28;20083;-70
2022/03/29 00:37:40;;;;;;;38.45;30.50;;;8.10;99.90;;;;;;5038952;28;20022;-71
2022/03/29 00:40:08;;;;;;;38.92;29.58;;;8.10;99.90;;;;;;5049210;28;20036;-70
2022/03/29 00:42:34;;;;;;;38.25;30.50;;;8.10;99.90;;;;;;5048395;28;20085;-69
2022/03/29 00:45:00;;;;;;;31.13;28.10;;;8.10;99.90;;;;;;5047503;28;20040;-69
2022/03/29 00:47:26;;;;;;;32.80;29.10;;;8.00;99.90;;;;;;5047863;28;20025;-71
2022/03/29 00:49:51;;;;;;;39.42;28.77;;;8.00;99.90;;;;;;5047122;28;20040;-69
2022/03/29 00:52:18;;;;;;;33.85;29.27;;;8.00;99.90;;;;;;5049886;28;20024;-70
2022/03/29 00:54:44;;;;;;;30.70;25.88;;;8.00;99.90;;;;;;5047053;28;20342;-70
2022/03/29 00:57:11;;;;;;;34.00;27.00;;;8.00;99.90;;;;;;5046574;28;20032;-69
2022/03/29 00:59:43;;;;;;;30.10;26.98;;;8.00;99.90;;;;;;5048968;28;20521;-70
2022/03/29 01:02:09;;;;;;;31.58;28.08;;;8.00;99.90;;;;;;5049248;28;20029;-70
2022/03/29 01:04:34;;;;;;;35.03;26.90;;;7.90;99.90;;;;;;5050662;28;20422;-70
2022/03/29 01:07:01;;;;;;;36.33;25.35;;;7.90;99.90;;;;;;5049902;28;20017;-69
2022/03/29 01:09:50;;;;;;;31.70;27.70;;;7.80;99.90;;;;;;5045165;28;20286;-71
2022/03/29 01:12:16;;;;;;;29.02;25.17;;;7.80;99.90;;;;;;5049276;28;20020;-71
2022/03/29 01:14:42;;;;;;;32.22;28.48;;;7.80;99.90;;;;;;5047163;28;20039;-69
2022/03/29 01:19:54;;;;;;;32.63;25.52;;;7.90;99.90;;;;;;5044163;28;20048;-71
2022/03/29 01:22:21;;;;;;;28.05;25.35;;;8.00;99.90;;;;;;5050285;28;20013;-69
2022/03/29 01:24:47;;;;;;;34.10;26.92;;;8.00;99.90;;;;;;5052063;28;20033;-69
2022/03/29 01:27:13;;;;;;;43.92;26.10;;;8.00;99.90;;;;;;5053330;28;20347;-69
2022/03/29 01:29:40;;;;;;;34.80;24.88;;;7.90;99.90;;;;;;5052003;28;20056;-70
2022/03/29 01:32:09;;;;;;;36.85;28.85;;;8.00;99.90;;;;;;5054174;28;20028;-70
2022/03/29 01:34:37;;;;;;;30.70;24.33;;;7.90;99.90;;;;;;5046499;28;20387;-70
2022/03/29 01:37:06;;;;;;;36.70;26.90;;;7.80;99.90;;;;;;5043548;28;20513;-71
2022/03/29 01:39:33;;;;;;;30.98;26.15;;;7.80;99.90;;;;;;5048593;28;20424;-69
2022/03/29 01:41:59;;;;;;;29.30;26.15;;;7.80;99.90;;;;;;5045908;28;20021;-69
2022/03/29 01:44:37;;;;;;;32.70;25.38;;;7.80;99.90;;;;;;5047323;28;20021;-70
2022/03/29 01:47:03;;;;;;;32.30;26.00;;;7.90;99.90;;;;;;5042359;28;20021;-70
2022/03/29 01:49:31;;;;;;;29.15;25.00;;;7.90;99.90;;;;;;5040084;28;20510;-69
2022/03/29 01:51:57;;;;;;;30.95;27.75;;;7.90;99.90;;;;;;5049971;28;20024;-71
2022/03/29 01:54:23;;;;;;;34.50;28.15;;;7.80;99.90;;;;;;5047498;28;20025;-71
2022/03/29 01:56:48;;;;;;;35.70;28.50;;;7.80;99.90;;;;;;5049875;28;20025;-70
2022/03/29 01:59:14;;;;;;;33.38;27.40;;;7.90;99.90;;;;;;5046562;28;20051;-69
2022/03/29 02:01:41;;;;;;;32.67;27.92;;;7.80;99.90;;;;;;5045626;28;20082;-72
2022/03/29 02:04:26;;;;;;;33.80;27.23;;;7.70;99.90;;;;;;5041508;28;20029;-70
2022/03/29 02:06:51;;;;;;;38.28;26.88;;;7.70;99.90;;;;;;5042863;28;20037;-72
2022/03/29 02:09:17;;;;;;;30.05;25.65;;;7.80;99.90;;;;;;5043082;28;20171;-69
2022/03/29 02:11:43;;;;;;;28.23;24.85;;;7.80;99.90;;;;;;5058912;28;20047;-73
2022/03/29 02:14:09;;;;;;;31.13;25.83;;;7.70;99.90;;;;;;5035429;28;20037;-70
2022/03/29 02:16:35;;;;;;;29.58;26.38;;;7.70;99.90;;;;;;5036437;28;20064;-69
2022/03/29 02:19:01;;;;;;;32.60;26.33;;;7.70;99.90;;;;;;5047318;28;20043;-70
2022/03/29 02:21:26;;;;;;;27.95;24.95;;;7.60;99.90;;;;;;5039484;28;20029;-69
2022/03/29 02:23:52;;;;;;;28.75;24.95;;;7.70;99.90;;;;;;5032063;28;20056;-71
2022/03/29 02:26:18;;;;;;;34.75;25.80;;;7.60;99.90;;;;;;5040698;28;20017;-68
2022/03/29 02:28:44;;;;;;;29.40;25.85;;;7.70;99.90;;;;;;5039454;28;20383;-70
2022/03/29 02:31:10;;;;;;;35.28;27.25;;;7.70;99.90;;;;;;5039529;28;20017;-70
2022/03/29 02:33:36;;;;;;;27.25;23.45;;;7.70;99.90;;;;;;5048569;28;20100;-70
2022/03/29 02:36:02;;;;;;;27.80;24.27;;;7.70;99.90;;;;;;5046891;28;20048;-69
2022/03/29 02:38:28;;;;;;;29.33;26.30;;;7.60;99.90;;;;;;5044027;28;20484;-69
2022/03/29 02:40:57;;;;;;;29.23;25.88;;;7.60;99.90;;;;;;5042654;28;20031;-69
2022/03/29 02:43:24;;;;;;;30.27;24.73;;;7.60;99.90;;;;;;5047658;28;20021;-69
2022/03/29 02:45:50;;;;;;;34.15;25.75;;;7.60;99.90;;;;;;5042649;28;20108;-69
2022/03/29 02:48:16;;;;;;;33.05;26.45;;;7.60;99.90;;;;;;5047947;28;20124;-69
2022/03/29 02:50:42;;;;;;;30.60;27.45;;;7.60;99.90;;;;;;5045944;28;20094;-69
2022/03/29 02:53:08;;;;;;;32.65;25.73;;;7.60;99.90;;;;;;5042497;28;20159;-71
2022/03/29 02:55:34;;;;;;;38.42;25.58;;;7.60;99.90;;;;;;5045437;28;20025;-69
2022/03/29 02:58:00;;;;;;;31.13;26.95;;;7.60;99.90;;;;;;5047018;28;20032;-70
2022/03/29 03:00:27;;;;;;;36.80;28.70;;;7.50;99.90;;;;;;5044582;28;20078;-70
2022/03/29 03:02:55;;;;;;;39.15;27.30;;;7.60;99.90;;;;;;5047182;28;20064;-69
2022/03/29 03:05:21;;;;;;;32.33;27.67;;;7.60;99.90;;;;;;5040429;28;21101;-70
2022/03/29 03:07:48;;;;;;;30.98;25.60;;;7.60;99.90;;;;;;5042622;28;20026;-69
2022/03/29 03:10:14;;;;;;;34.58;25.67;;;7.60;99.90;;;;;;5047150;28;20453;-69
2022/03/29 03:12:45;;;;;;;37.53;28.58;;;7.60;99.90;;;;;;5051316;28;20055;-68
2022/03/29 03:15:12;;;;;;;30.48;26.60;;;7.60;99.90;;;;;;5042365;28;20068;-69
2022/03/29 03:17:38;;;;;;;35.72;27.92;;;7.60;99.90;;;;;;5047742;28;20107;-69
2022/03/29 03:20:05;;;;;;;39.10;26.58;;;7.70;99.90;;;;;;5051962;28;20064;-69
2022/03/29 03:22:32;;;;;;;31.27;27.77;;;7.70;99.90;;;;;;5052469;28;20021;-68
2022/03/29 03:24:57;;;;;;;32.72;25.70;;;7.70;99.90;;;;;;5044631;28;20017;-68
2022/03/29 03:27:23;;;;;;;32.85;25.13;;;7.60;99.90;;;;;;5046424;28;20115;-70
2022/03/29 03:29:49;;;;;;;35.15;28.25;;;7.60;99.90;;;;;;5052073;28;20435;-70
2022/03/29 03:32:15;;;;;;;32.53;27.17;;;7.50;99.90;;;;;;5052059;28;20029;-70
2022/03/29 03:34:41;;;;;;;32.83;26.75;;;7.60;99.90;;;;;;5046561;28;20514;-69
2022/03/29 03:37:08;;;;;;;33.17;26.98;;;7.60;99.90;;;;;;5039370;28;20048;-70
2022/03/29 03:39:36;;;;;;;34.40;26.50;;;7.60;99.90;;;;;;5032327;28;20054;-70
2022/03/29 03:42:06;;;;;;;33.63;24.77;;;7.60;99.90;;;;;;5031904;28;20021;-69
2022/03/29 03:44:32;;;;;;;32.35;24.85;;;7.60;99.90;;;;;;5041590;28;20437;-70
2022/03/29 03:46:58;;;;;;;30.05;22.85;;;7.70;99.90;;;;;;5043213;28;20014;-71
2022/03/29 03:49:24;;;;;;;24.83;21.42;;;7.70;99.90;;;;;;5032421;28;20064;-70
2022/03/29 03:51:50;;;;;;;35.13;21.73;;;7.70;99.90;;;;;;5032381;28;20033;-70
2022/03/29 03:54:35;;;;;;;25.75;22.30;;;7.70;99.90;;;;;;5044922;28;20016;-69
2022/03/29 03:57:01;;;;;;;29.30;24.05;;;7.60;99.90;;;;;;5046816;28;20032;-70
2022/03/29 03:59:26;;;;;;;42.03;24.73;;;7.60;99.90;;;;;;5051653;28;20040;-69
2022/03/29 04:02:02;;;;;;;32.22;23.77;;;7.60;99.90;;;;;;5049342;28;20073;-72
2022/03/29 04:04:31;;;;;;;30.75;24.00;;;7.70;99.90;;;;;;5046714;28;20045;-71
2022/03/29 04:07:20;;;;;;;27.10;23.98;;;7.80;99.90;;;;;;5042843;28;20095;-71
2022/03/29 04:09:55;;;;;;;25.10;22.40;;;7.70;99.90;;;;;;5044861;28;20036;-72
2022/03/29 04:12:39;;;;;;;31.00;25.27;;;7.80;99.90;;;;;;5042075;28;20119;-69
2022/03/29 04:15:06;;;;;;;29.23;25.10;;;7.70;99.90;;;;;;5043040;28;20022;-70
2022/03/29 04:17:31;;;;;;;34.75;23.73;;;7.60;99.90;;;;;;5041044;28;20093;-70
2022/03/29 04:19:58;;;;;;;31.85;24.35;;;7.70;99.90;;;;;;5044382;28;20116;-70
2022/03/29 04:22:24;;;;;;;29.08;24.33;;;7.70;99.90;;;;;;5048724;28;20032;-70
2022/03/29 04:24:50;;;;;;;31.67;24.17;;;7.70;99.90;;;;;;5046927;28;20029;-69
2022/03/29 04:27:15;;;;;;;33.92;23.77;;;7.70;99.90;;;;;;5050757;28;20027;-69
2022/03/29 04:29:41;;;;;;;32.95;24.90;;;7.70;99.90;;;;;;5049591;28;20029;-69
2022/03/29 04:32:08;;;;;;;29.85;25.38;;;7.70;99.90;;;;;;5049116;28;20049;-70
2022/03/29 04:34:34;;;;;;;38.70;24.52;;;7.70;99.90;;;;;;5051006;28;20021;-69
2022/03/29 04:37:00;;;;;;;39.78;24.40;;;7.70;99.90;;;;;;5049047;28;20387;-68
2022/03/29 04:39:26;;;;;;;27.83;24.50;;;7.60;99.90;;;;;;5043144;28;20020;-68
2022/03/29 04:41:52;;;;;;;33.97;24.80;;;7.70;99.90;;;;;;5042529;28;20025;-70
2022/03/29 04:44:18;;;;;;;32.30;25.10;;;7.60;99.90;;;;;;5045681;28;20434;-69
2022/03/29 04:46:44;;;;;;;36.10;24.35;;;7.60;99.90;;;;;;5035510;28;20086;-70
2022/03/29 04:49:28;;;;;;;35.92;24.73;;;7.70;99.90;;;;;;5029844;28;20099;-69
2022/03/29 04:51:53;;;;;;;34.45;25.42;;;7.70;99.90;;;;;;5044838;28;20486;-71
2022/03/29 04:54:19;;;;;;;33.15;24.90;;;7.70;99.90;;;;;;5047017;28;20115;-70
2022/03/29 05:03:34;;;;;;;31.90;25.30;;;7.70;99.90;;;;;;5048538;28;20020;-70
2022/03/29 05:06:00;;;;;;;33.78;24.05;;;7.80;99.90;;;;;;5034191;28;20032;-69
2022/03/29 05:08:26;;;;;;;39.95;25.52;;;7.80;99.90;;;;;;5032242;28;20029;-69
2022/03/29 05:10:51;;;;;;;30.08;23.80;;;7.70;99.90;;;;;;5043215;28;20479;-72
2022/03/29 05:13:17;;;;;;;33.88;25.63;;;7.80;99.90;;;;;;5048161;28;20032;-70
2022/03/29 05:15:44;;;;;;;36.20;25.55;;;7.80;99.90;;;;;;5049836;28;20071;-70
2022/03/29 05:18:10;;;;;;;34.13;25.30;;;7.80;99.90;;;;;;5047455;28;20025;-70
2022/03/29 05:20:36;;;;;;;30.55;24.05;;;7.90;99.90;;;;;;5049631;28;20441;-70
2022/03/29 05:23:06;;;;;;;36.55;25.30;;;7.90;99.90;;;;;;5049036;28;20033;-71
2022/03/29 05:25:33;;;;;;;38.33;25.30;;;7.90;99.90;;;;;;5038891;28;20032;-69
2022/03/29 05:27:59;;;;;;;33.00;25.77;;;7.90;99.90;;;;;;5029008;28;20044;-70
2022/03/29 05:30:25;;;;;;;42.30;24.70;;;8.00;99.90;;;;;;5040836;28;20423;-71
2022/03/29 05:32:57;;;;;;;41.13;25.55;;;8.10;99.90;;;;;;5052299;28;20031;-70
2022/03/29 05:35:26;;;;;;;44.05;25.50;;;8.00;99.90;;;;;;5048530;28;20025;-70
2022/03/29 05:37:52;;;;;;;34.55;25.38;;;8.00;99.90;;;;;;5052003;28;20056;-69
2022/03/29 05:40:17;;;;;;;36.65;25.13;;;8.10;99.90;;;;;;5048858;28;20017;-69
2022/03/29 05:42:44;;;;;;;40.72;24.73;;;8.20;99.90;;;;;;5051917;28;20045;-70
2022/03/29 05:45:12;;;;;;;30.73;24.83;;;8.30;99.90;;;;;;5043774;28;20036;-71
2022/03/29 05:50:23;;;;;;;40.80;25.58;;;8.50;99.90;;;;;;5048458;28;20040;-70
2022/03/29 05:52:49;;;;;;;48.88;27.05;;;8.50;99.90;;;;;;5047840;28;20024;-70
2022/03/29 05:55:15;;;;;;;45.83;25.98;;;8.60;99.90;;;;;;5048612;28;20035;-71
2022/03/29 05:57:41;;;;;;;34.42;23.33;;;8.80;99.90;;;;;;5034122;28;20491;-67
2022/03/29 06:00:10;;;;;;;37.47;24.27;;;8.80;99.90;;;;;;5027246;28;20033;-64
2022/03/29 06:02:36;;;;;;;42.38;26.50;;;8.80;99.90;;;;;;5035664;28;20392;-66
2022/03/29 06:05:02;;;;;;;38.75;25.60;;;8.90;99.90;;;;;;5043280;28;20039;-66
2022/03/29 06:07:28;;;;;;;34.30;27.23;;;9.10;99.90;;;;;;5045657;28;20100;-65
2022/03/29 06:09:54;;;;;;;36.97;27.52;;;9.30;99.90;;;;;;5044156;28;20465;-66
2022/03/29 06:12:54;;;;;;;31.95;26.10;;;9.30;99.90;;;;;;5046882;28;20111;-65
2022/03/29 06:15:19;;;;;;;38.65;26.13;;;9.50;99.90;;;;;;5043641;28;20485;-65
2022/03/29 06:17:45;;;;;;;32.20;25.60;;;9.50;99.90;;;;;;5043134;28;20029;-65
2022/03/29 06:20:11;;;;;;;41.40;27.87;;;9.60;99.90;;;;;;5003199;28;1273751;-65
2022/03/29 06:22:44;;;;;;;36.00;29.05;;;9.60;99.90;;;;;;5046454;28;20104;-66
2022/03/29 06:25:10;;;;;;;50.08;30.55;;;9.90;99.90;;;;;;5040792;28;20056;-65
2022/03/29 06:27:36;;;;;;;35.92;28.63;;;9.90;99.90;;;;;;5038731;28;20460;-65
2022/03/29 06:30:06;;;;;;;35.55;27.85;;;10.00;99.90;;;;;;5033465;28;20042;-65
2022/03/29 06:32:32;;;;;;;33.95;25.98;;;10.10;99.90;;;;;;5029728;28;20033;-65
2022/03/29 06:34:58;;;;;;;35.55;28.83;;;10.20;99.90;;;;;;5030776;28;20080;-65
2022/03/29 06:37:24;;;;;;;33.45;25.25;;;10.30;99.90;;;;;;5038543;28;20017;-64
2022/03/29 06:39:50;;;;;;;33.17;24.98;;;10.40;99.90;;;;;;5048526;28;20024;-65
2022/03/29 06:42:18;;;;;;;28.55;20.60;;;10.50;99.90;;;;;;5049874;28;20025;-64
2022/03/29 06:44:45;;;;;;;30.10;22.88;;;10.60;99.90;;;;;;5051396;28;20044;-64
2022/03/29 06:47:11;;;;;;;31.38;26.83;;;10.80;99.90;;;;;;5039642;28;20100;-65
2022/03/29 06:49:38;;;;;;;34.40;28.63;;;11.00;99.90;;;;;;5045905;28;20029;-63
2022/03/29 06:52:04;;;;;;;24.35;21.10;;;11.00;99.90;;;;;;5043065;28;20043;-65
2022/03/29 06:54:31;;;;;;;22.15;18.65;;;11.20;99.90;;;;;;5041121;28;20056;-64
2022/03/29 06:56:57;;;;;;;24.67;19.52;;;11.30;99.90;;;;;;5048844;28;20117;-63
2022/03/29 06:59:22;;;;;;;29.27;22.55;;;11.40;99.90;;;;;;5047830;28;20471;-65
2022/03/29 07:01:48;;;;;;;30.45;25.17;;;11.50;99.90;;;;;;5048968;28;20039;-64
2022/03/29 07:04:14;;;;;;;35.65;27.80;;;11.60;99.90;;;;;;5046864;28;20544;-64
2022/03/29 07:06:40;;;;;;;34.03;26.90;;;11.70;99.90;;;;;;5049636;28;20059;-65
2022/03/29 07:11:51;;;;;;;45.35;29.90;;;11.90;99.90;;;;;;5042708;28;20541;-64
2022/03/29 07:14:16;;;;;;;56.15;26.73;;;12.00;99.90;;;;;;5045277;28;20060;-63
2022/03/29 07:16:44;;;;;;;62.80;28.67;;;12.10;99.90;;;;;;5036014;28;20021;-64
2022/03/29 07:19:10;;;;;;;36.60;27.83;;;12.20;99.90;;;;;;5048476;28;20040;-65
2022/03/29 07:21:40;;;;;;;44.08;29.90;;;12.00;99.90;;;;;;5050468;28;20468;-65
2022/03/29 07:24:07;;;;;;;34.90;23.25;;;12.00;99.90;;;;;;5049091;28;20069;-64
2022/03/29 07:26:34;;;;;;;28.85;22.20;;;12.10;99.90;;;;;;5048155;28;20499;-65
2022/03/29 07:29:00;;;;;;;28.17;20.55;;;12.20;99.90;;;;;;5041767;28;20065;-65
2022/03/29 07:31:26;;;;;;;35.22;21.63;;;12.40;99.90;;;;;;5045990;28;20033;-64
2022/03/29 07:33:52;;;;;;;25.92;19.60;;;12.50;99.90;;;;;;5048275;28;20037;-63
2022/03/29 07:36:17;;;;;;;29.27;20.45;;;12.50;99.90;;;;;;5039481;28;20034;-64
2022/03/29 07:38:43;;;;;;;34.35;20.85;;;12.50;99.90;;;;;;5049447;28;20055;-64
2022/03/29 07:41:12;;;;;;;24.95;20.42;;;12.50;99.90;;;;;;5051201;28;20051;-63
2022/03/29 07:43:38;;;;;;;33.85;19.42;;;12.60;99.90;;;;;;5050469;28;20031;-64
2022/03/29 07:46:04;;;;;;;32.03;21.88;;;12.50;99.90;;;;;;5046484;28;20025;-65
2022/03/29 07:48:30;;;;;;;33.40;19.83;;;12.60;99.90;;;;;;5051598;28;20111;-66
2022/03/29 07:50:55;;;;;;;36.97;20.48;;;12.70;99.90;;;;;;5050948;28;20426;-65
2022/03/29 07:53:24;;;;;;;22.65;19.45;;;12.80;99.90;;;;;;5050282;28;20033;-64
2022/03/29 07:55:51;;;;;;;22.25;19.73;;;12.90;99.90;;;;;;5050758;28;20482;-63
2022/03/29 07:58:19;;;;;;;25.77;20.98;;;13.00;99.90;;;;;;5049768;28;20526;-64
2022/03/29 08:00:46;;;;;;;28.65;20.15;;;12.90;99.90;;;;;;5047536;28;20139;-64
2022/03/29 08:03:15;;;;;;;27.65;19.52;;;13.10;99.90;;;;;;5048046;28;20371;-64
2022/03/29 08:05:42;;;;;;;39.22;26.38;;;13.40;99.90;;;;;;5043704;28;20471;-64
2022/03/29 08:08:11;;;;;;;32.42;24.98;;;13.50;99.90;;;;;;5041746;28;20028;-65
2022/03/29 08:10:38;;;;;;;25.58;21.20;;;13.50;99.90;;;;;;5044111;28;20025;-66
2022/03/29 08:13:07;;;;;;;23.70;20.10;;;13.60;99.90;;;;;;5049505;28;20029;-66
2022/03/29 08:15:33;;;;;;;27.33;19.50;;;13.70;99.90;;;;;;5051024;28;20036;-67
2022/03/29 08:17:59;;;;;;;32.75;25.88;;;13.80;99.90;;;;;;5043363;28;20096;-65
2022/03/29 08:20:26;;;;;;;33.42;22.95;;;14.00;99.90;;;;;;5044363;28;20029;-66
2022/03/29 08:22:55;;;;;;;31.33;25.55;;;14.00;99.90;;;;;;5039650;28;20601;-66
2022/03/29 08:25:21;;;;;;;26.98;22.38;;;14.10;99.90;;;;;;5042220;28;20396;-65
2022/03/29 08:27:49;;;;;;;27.60;23.88;;;14.30;99.90;;;;;;5044264;28;20040;-65
2022/03/29 08:30:18;;;;;;;35.92;23.80;;;14.50;99.90;;;;;;5044543;28;20550;-64
2022/03/29 08:32:45;;;;;;;30.50;23.33;;;14.60;99.90;;;;;;5045694;28;20037;-65
2022/03/29 08:35:12;;;;;;;30.00;22.90;;;14.70;99.90;;;;;;5050754;28;20077;-64
2022/03/29 08:37:39;;;;;;;35.55;24.20;;;14.90;99.90;;;;;;5037409;28;20022;-64
2022/03/29 08:40:13;;;;;;;26.15;19.67;;;15.00;99.90;;;;;;5036458;28;20075;-64
2022/03/29 08:42:40;;;;;;;30.20;21.48;;;15.00;99.90;;;;;;5038758;28;20192;-64
2022/03/29 08:45:14;;;;;;;38.00;25.40;;;15.00;99.90;;;;;;5031754;28;20026;-64
2022/03/29 08:47:42;;;;;;;26.20;22.10;;;15.10;99.90;;;;;;5030661;28;20120;-63
2022/03/29 08:50:09;;;;;;;26.20;18.33;;;15.00;99.90;;;;;;5039478;28;20025;-63
2022/03/29 08:52:35;;;;;;;20.95;18.23;;;15.10;99.90;;;;;;5042533;28;20034;-63
2022/03/29 08:55:03;;;;;;;30.48;24.23;;;15.10;99.90;;;;;;5045222;28;20021;-63
2022/03/29 08:57:30;;;;;;;29.90;19.25;;;15.10;99.90;;;;;;5047288;28;20606;-64
2022/03/29 08:59:56;;;;;;;31.30;20.23;;;15.10;99.90;;;;;;5038107;28;20059;-65
2022/03/29 09:02:22;;;;;;;29.65;19.17;;;15.10;99.90;;;;;;5038056;28;20025;-64
2022/03/29 09:05:13;;;;;;;29.83;16.65;;;15.20;99.90;;;;;;5035647;28;20518;-65
2022/03/29 09:07:56;;;;;;;30.10;19.45;;;15.40;99.90;;;;;;5031796;28;20395;-65
2022/03/29 09:10:38;;;;;;;31.92;20.63;;;15.60;99.90;;;;;;5038817;28;20482;-64
2022/03/29 09:13:31;;;;;;;21.35;17.13;;;15.80;99.90;;;;;;5035598;28;20028;-65
2022/03/29 09:15:59;;;;;;;18.63;16.13;;;15.90;99.90;;;;;;5030116;28;20522;-67
2022/03/29 09:18:25;;;;;;;51.88;38.22;;;15.90;99.90;;;;;;5031370;28;20080;-66
2022/03/29 09:21:14;;;;;;;23.48;20.30;;;15.60;99.90;;;;;;5043415;28;20491;-67
2022/03/29 09:23:42;;;;;;;27.55;17.67;;;15.50;99.90;;;;;;5048864;28;20029;-66
2022/03/29 09:26:28;;;;;;;47.97;35.53;;;15.60;99.90;;;;;;5045206;28;20095;-65
2022/03/29 09:28:54;;;;;;;27.95;22.67;;;15.80;99.90;;;;;;5039801;28;20037;-64
2022/03/29 09:31:22;;;;;;;28.25;19.20;;;15.90;99.90;;;;;;5043554;28;20116;-64
2022/03/29 09:33:48;;;;;;;23.73;15.68;;;16.10;99.90;;;;;;5032587;28;20100;-65
2022/03/29 09:36:20;;;;;;;22.05;17.08;;;16.20;99.90;;;;;;5029668;28;20314;-66
2022/03/29 09:38:47;;;;;;;28.10;15.38;;;16.10;99.90;;;;;;5030809;28;20428;-66
2022/03/29 09:41:26;;;;;;;25.27;16.77;;;16.10;99.90;;;;;;5045372;28;20033;-66
2022/03/29 09:44:02;;;;;;;21.50;13.40;;;15.90;99.90;;;;;;5047181;28;20017;-65
2022/03/29 09:46:29;;;;;;;17.15;13.32;;;15.80;99.90;;;;;;5050748;28;20029;-66
2022/03/29 09:49:03;;;;;;;19.92;12.82;;;15.80;99.90;;;;;;5050669;28;20029;-66
2022/03/29 09:51:29;;;;;;;16.42;12.52;;;15.60;99.90;;;;;;5042212;28;20057;-65
2022/03/29 09:54:01;;;;;;;13.55;12.10;;;15.30;99.90;;;;;;5043374;28;20021;-66
2022/03/29 09:56:30;;;;;;;17.30;12.35;;;15.20;99.90;;;;;;5042678;28;20038;-66
2022/03/29 09:59:10;;;;;;;18.23;11.60;;;15.20;99.90;;;;;;5042005;28;20442;-64
2022/03/29 10:01:49;;;;;;;22.15;13.98;;;15.10;99.90;;;;;;5041144;28;20384;-66
2022/03/29 10:04:16;;;;;;;15.68;10.85;;;15.00;99.90;;;;;;5036174;28;20416;-67
2022/03/29 10:06:43;;;;;;;17.13;12.45;;;15.00;99.90;;;;;;5030753;28;20426;-66
2022/03/29 10:09:26;;;;;;;20.27;12.85;;;14.90;99.90;;;;;;5029425;28;20539;-66
2022/03/29 10:11:55;;;;;;;21.10;12.00;;;14.80;99.90;;;;;;5047504;28;20102;-66
2022/03/29 10:14:22;;;;;;;20.80;12.60;;;14.90;99.90;;;;;;5050474;28;20556;-66
2022/03/29 10:16:50;;;;;;;11.65;10.23;;;15.00;99.90;;;;;;5049839;28;20090;-67
2022/03/29 10:19:19;;;;;;;14.25;11.55;;;14.80;99.90;;;;;;5048826;28;20029;-65
2022/03/29 10:21:46;;;;;;;15.52;11.30;;;14.80;99.90;;;;;;5044463;28;20332;-66
2022/03/29 10:24:17;;;;;;;18.75;11.02;;;14.80;99.90;;;;;;5044392;28;20380;-65
2022/03/29 10:26:45;;;;;;;15.32;11.23;;;14.80;99.90;;;;;;5046859;28;20025;-64
2022/03/29 10:29:11;;;;;;;15.00;10.80;;;14.70;99.90;;;;;;5039995;28;20487;-65
2022/03/29 10:31:42;;;;;;;17.52;10.48;;;14.90;99.90;;;;;;5049926;28;20036;-65
2022/03/29 10:34:24;;;;;;;17.50;11.88;;;14.90;99.90;;;;;;5042643;28;20410;-66
2022/03/29 10:37:03;;;;;;;;;;;14.80;99.90;;;;;;5052013;28;20110;-66
2022/03/29 10:39:45;;;;;;;18.13;10.60;;;15.00;99.90;;;;;;5049670;28;19916;-66
2022/03/29 10:42:36;;;;;;;17.40;9.95;;;14.90;99.90;;;;;;5042242;28;20475;-66
2022/03/29 10:45:14;;;;;;;23.52;10.05;;;14.90;99.90;;;;;;5050751;28;20044;-66
2022/03/29 10:47:42;;;;;;;18.05;10.38;;;14.80;99.90;;;;;;5048058;28;20021;-65
2022/03/29 10:50:11;;;;;;;12.27;9.65;;;14.80;99.90;;;;;;5047444;28;20025;-65
2022/03/29 10:52:44;;;;;;;21.75;11.90;;;14.90;99.90;;;;;;5044446;28;20032;-65
2022/03/29 10:55:25;;;;;;;10.65;8.50;;;14.90;99.90;;;;;;5048610;28;20029;-65
2022/03/29 10:58:13;;;;;;;17.83;9.30;;;15.00;99.90;;;;;;5049390;28;20036;-65
2022/03/29 11:00:44;;;;;;;16.80;11.48;;;15.00;99.90;;;;;;5041238;28;20111;-65
2022/03/29 11:03:20;;;;;;;19.23;10.23;;;15.10;99.90;;;;;;5051909;28;20017;-69
2022/03/29 11:06:06;;;;;;;18.95;9.40;;;15.10;99.90;;;;;;5053865;28;20069;-66
2022/03/29 11:08:36;;;;;;;19.05;9.80;;;14.90;99.90;;;;;;5050649;28;20583;-66
2022/03/29 11:11:04;;;;;;;15.50;9.48;;;15.00;99.90;;;;;;5047287;28;20036;-65
2022/03/29 11:13:40;;;;;;;11.50;8.80;;;15.10;99.90;;;;;;5044978;28;20009;-64
2022/03/29 11:16:30;;;;;;;16.67;8.85;;;15.10;99.90;;;;;;5052922;28;20064;-65
2022/03/29 11:18:57;;;;;;;19.90;10.52;;;14.90;99.90;;;;;;5050719;28;20108;-64
2022/03/29 11:21:35;;;;;;;17.75;9.65;;;14.90;99.90;;;;;;5048663;28;20120;-65
2022/03/29 11:24:04;;;;;;;21.80;10.18;;;14.90;99.90;;;;;;5041722;28;20207;-66
2022/03/29 11:26:30;;;;;;;11.23;9.23;;;15.10;99.90;;;;;;5031623;28;20111;-65
2022/03/29 11:29:01;;;;;;;14.57;9.10;;;15.30;99.90;;;;;;5039436;28;20064;-64
2022/03/29 11:31:35;;;;;;;18.77;9.85;;;15.30;99.90;;;;;;5046981;28;20025;-66
2022/03/29 11:34:02;;;;;;;17.92;10.35;;;15.30;99.90;;;;;;5044930;28;20017;-65
2022/03/29 11:36:28;;;;;;;11.73;8.98;;;15.30;99.90;;;;;;5052655;28;20025;-66
2022/03/29 11:38:54;;;;;;;15.77;10.07;;;15.20;99.90;;;;;;5052430;28;20426;-65
2022/03/29 11:41:25;;;;;;;14.23;9.45;;;15.20;99.90;;;;;;5046907;28;20021;-65
2022/03/29 11:44:09;;;;;;;17.92;11.93;;;15.30;99.90;;;;;;5043825;28;20475;-65
2022/03/29 11:46:51;;;;;;;18.45;12.23;;;15.40;99.90;;;;;;5052769;28;20053;-65
2022/03/29 11:49:22;;;;;;;17.90;12.88;;;15.40;99.90;;;;;;5041470;28;20498;-67
2022/03/29 11:52:20;;;;;;;18.58;14.25;;;15.40;99.90;;;;;;5043189;28;20065;-65
2022/03/29 11:54:48;;;;;;;21.60;12.95;;;15.50;99.90;;;;;;5025336;28;20496;-66
2022/03/29 11:57:30;;;;;;;19.27;12.27;;;15.50;99.90;;;;;;5038513;28;20025;-65
2022/03/29 11:59:57;;;;;;;23.80;13.88;;;15.50;99.90;;;;;;5048651;28;20513;-65
2022/03/29 12:02:25;;;;;;;19.15;13.93;;;15.50;99.90;;;;;;5040078;28;20511;-65
2022/03/29 12:04:51;;;;;;;21.52;14.70;;;15.60;99.90;;;;;;5044049;28;20047;-64
2022/03/29 12:07:40;;;;;;;17.23;14.35;;;15.50;99.90;;;;;;5046420;28;20029;-66
2022/03/29 12:10:06;;;;;;;19.70;14.65;;;15.40;99.90;;;;;;5052571;28;20102;-66
2022/03/29 12:12:32;;;;;;;25.27;14.65;;;15.40;99.90;;;;;;5052776;28;20021;-67
2022/03/29 12:15:06;;;;;;;21.58;15.27;;;15.50;99.90;;;;;;5046737;28;20095;-65
2022/03/29 12:17:34;;;;;;;24.10;16.38;;;15.40;99.90;;;;;;5042604;28;20053;-66
2022/03/29 12:20:00;;;;;;;19.50;15.65;;;15.40;99.90;;;;;;5033079;28;20030;-65
2022/03/29 12:22:29;;;;;;;23.35;15.75;;;15.30;99.90;;;;;;5032149;28;20036;-64
2022/03/29 12:24:57;;;;;;;27.52;17.73;;;15.40;99.90;;;;;;5044169;28;20283;-65
2022/03/29 12:27:26;;;;;;;25.60;16.58;;;15.30;99.90;;;;;;5040991;28;20071;-66
2022/03/29 12:29:57;;;;;;;23.98;16.10;;;15.40;99.90;;;;;;5042730;28;20037;-65
2022/03/29 12:32:23;;;;;;;19.95;16.05;;;15.50;99.90;;;;;;5040413;28;20049;-65
2022/03/29 12:35:00;;;;;;;24.38;14.55;;;15.50;99.90;;;;;;5039895;28;20106;-66
2022/03/29 12:37:27;;;;;;;21.23;11.75;;;15.20;99.90;;;;;;5048460;28;20385;-65
2022/03/29 12:40:14;;;;;;;24.15;14.23;;;15.10;99.90;;;;;;5050436;28;20625;-65
2022/03/29 12:42:41;;;;;;;17.00;11.02;;;15.20;99.90;;;;;;5052019;28;20128;-65
2022/03/29 12:45:08;;;;;;;18.42;11.60;;;15.20;99.90;;;;;;5044869;28;20052;-66
2022/03/29 12:47:35;;;;;;;18.23;12.05;;;15.10;99.90;;;;;;5037500;28;20082;-65
2022/03/29 12:50:02;;;;;;;19.63;14.52;;;15.00;99.90;;;;;;5046683;28;20337;-66
2022/03/29 12:52:28;;;;;;;19.15;13.65;;;15.10;99.90;;;;;;5045442;28;20022;-64
2022/03/29 12:55:02;;;;;;;21.02;12.50;;;15.20;99.90;;;;;;5044190;28;20071;-66
2022/03/29 12:57:38;;;;;;;21.48;11.77;;;15.10;99.90;;;;;;5045728;28;20089;-65